Time;durP1;ratioP1;P1;durP2;ratioP2;P2;SDS_P1;SDS_P2;PMS_P1;PMS_P2;Temp;Humidity;BMP_temperature;BMP_pressure;BME280_temperature;BME280_humidity;BME280_pressure;Samples;Min_cycle;Max_cycle;Signal;HPM_P1;HPM_P2
2022/12/07 00:01:53;;;;;;;17.13;7.55;;;;;;;;;;5045849;28;20025;-67
2022/12/07 00:04:19;;;;;;;17.73;7.95;;;;;;;;;;5060815;28;20022;-69
2022/12/07 00:06:45;;;;;;;21.30;7.53;;;;;;;;;;5047246;28;20124;-66
2022/12/07 00:09:12;;;;;;;17.58;7.25;;;;;;;;;;5049159;28;20377;-65
2022/12/07 00:11:38;;;;;;;16.23;7.18;;;;;;;;;;5046082;28;20021;-68
2022/12/07 00:14:05;;;;;;;17.48;7.15;;;;;;;;;;5045648;28;20028;-69
2022/12/07 00:16:31;;;;;;;16.55;8.45;;;;;;;;;;5051854;28;20029;-66
2022/12/07 00:18:57;;;;;;;15.38;7.03;;;;;;;;;;5052429;28;20025;-68
2022/12/07 00:21:23;;;;;;;15.73;7.00;;;;;;;;;;5050931;28;20509;-68
2022/12/07 00:23:50;;;;;;;16.65;7.15;;;;;;;;;;5046166;28;20025;-68
2022/12/07 00:26:16;;;;;;;15.32;7.78;;;;;;;;;;5052361;28;20502;-67
2022/12/07 00:28:45;;;;;;;17.00;7.28;;;;;;;;;;5052180;28;20379;-69
2022/12/07 00:31:11;;;;;;;14.18;7.45;;;;;;;;;;5051965;28;20021;-68
2022/12/07 00:33:36;;;;;;;16.65;8.27;;;;;;;;;;5047472;28;20103;-68
2022/12/07 00:36:03;;;;;;;19.35;8.55;;;;;;;;;;5046304;28;20398;-68
2022/12/07 00:38:30;;;;;;;21.35;8.52;;;;;;;;;;5051723;28;20467;-68
2022/12/07 00:41:02;;;;;;;23.45;9.13;;;;;;;;;;5052106;28;20021;-69
2022/12/07 00:43:28;;;;;;;15.85;7.97;;;;;;;;;;5051760;28;20036;-68
2022/12/07 00:45:53;;;;;;;20.52;7.82;;;;;;;;;;5051981;28;20374;-67
2022/12/07 00:48:19;;;;;;;19.15;8.75;;;;;;;;;;5042099;28;20044;-68
2022/12/07 00:50:44;;;;;;;19.10;8.95;;;;;;;;;;5064425;28;20111;-67
2022/12/07 00:53:09;;;;;;;17.40;8.55;;;;;;;;;;5066775;28;20482;-68
2022/12/07 00:55:35;;;;;;;21.17;9.18;;;;;;;;;;5063863;28;20042;-69
2022/12/07 00:58:00;;;;;;;17.02;7.95;;;;;;;;;;5051426;28;20013;-67
2022/12/07 01:00:26;;;;;;;19.58;9.38;;;;;;;;;;5047680;28;20072;-68
2022/12/07 01:02:51;;;;;;;20.65;8.00;;;;;;;;;;5050181;28;20076;-65
2022/12/07 01:05:16;;;;;;;20.25;8.60;;;;;;;;;;5050595;28;20035;-68
2022/12/07 01:07:42;;;;;;;16.35;8.07;;;;;;;;;;5045545;28;20391;-68
2022/12/07 01:10:07;;;;;;;18.83;8.90;;;;;;;;;;5049742;28;20387;-66
2022/12/07 01:12:32;;;;;;;20.58;9.57;;;;;;;;;;5050985;28;20016;-69
2022/12/07 01:14:57;;;;;;;26.55;10.07;;;;;;;;;;5051046;28;20494;-68
2022/12/07 01:17:23;;;;;;;19.70;8.85;;;;;;;;;;5050592;28;20390;-68
2022/12/07 01:19:48;;;;;;;17.98;8.40;;;;;;;;;;5050863;28;20053;-67
2022/12/07 01:22:13;;;;;;;22.15;9.48;;;;;;;;;;5050874;28;20317;-68
2022/12/07 01:24:38;;;;;;;18.40;8.00;;;;;;;;;;5049353;28;20017;-67
2022/12/07 01:27:04;;;;;;;17.45;9.13;;;;;;;;;;5050585;28;20021;-67
2022/12/07 01:29:29;;;;;;;20.77;8.52;;;;;;;;;;5051165;28;20052;-65
2022/12/07 01:31:54;;;;;;;18.27;8.25;;;;;;;;;;5050414;28;20104;-67
2022/12/07 01:34:19;;;;;;;17.33;7.82;;;;;;;;;;5050387;28;20102;-66
2022/12/07 01:36:44;;;;;;;17.35;8.32;;;;;;;;;;5053027;28;20500;-67
2022/12/07 01:39:10;;;;;;;19.75;8.45;;;;;;;;;;5071125;28;20040;-67
2022/12/07 01:41:38;;;;;;;22.10;9.80;;;;;;;;;;5070615;28;20067;-66
2022/12/07 01:44:23;;;;;;;18.08;7.50;;;;;;;;;;5043405;28;20013;-68
2022/12/07 01:46:53;;;;;;;16.95;8.20;;;;;;;;;;5040743;28;20033;-66
2022/12/07 01:49:18;;;;;;;16.45;7.90;;;;;;;;;;5063935;28;20031;-67
2022/12/07 01:51:45;;;;;;;22.13;8.73;;;;;;;;;;5050292;28;20017;-67
2022/12/07 01:54:11;;;;;;;16.63;6.95;;;;;;;;;;5061428;28;20032;-70
2022/12/07 01:56:37;;;;;;;19.10;7.03;;;;;;;;;;5049933;28;20029;-69
2022/12/07 01:59:02;;;;;;;14.35;7.43;;;;;;;;;;5049677;28;20024;-65
2022/12/07 02:01:27;;;;;;;19.48;8.25;;;;;;;;;;5049705;28;20021;-66
2022/12/07 02:03:53;;;;;;;15.50;6.93;;;;;;;;;;5051104;28;20035;-68
2022/12/07 02:06:20;;;;;;;15.90;7.40;;;;;;;;;;5048132;28;20029;-67
2022/12/07 02:08:46;;;;;;;19.73;8.43;;;;;;;;;;5040469;28;20063;-68
2022/12/07 02:11:11;;;;;;;16.33;7.47;;;;;;;;;;5049809;28;20028;-65
2022/12/07 02:13:37;;;;;;;19.92;8.57;;;;;;;;;;5049702;28;20427;-67
2022/12/07 02:16:21;;;;;;;19.60;7.95;;;;;;;;;;5049684;28;20051;-67
2022/12/07 02:19:09;;;;;;;15.75;7.82;;;;;;;;;;5050115;28;20029;-67
2022/12/07 02:21:45;;;;;;;19.88;7.40;;;;;;;;;;5046316;28;20483;-67
2022/12/07 02:24:22;;;;;;;21.50;8.60;;;;;;;;;;5048839;28;20029;-66
2022/12/07 02:26:53;;;;;;;17.90;7.32;;;;;;;;;;5049270;28;20039;-68
2022/12/07 02:29:19;;;;;;;15.55;7.80;;;;;;;;;;5048455;28;20055;-68
2022/12/07 02:31:53;;;;;;;17.85;7.55;;;;;;;;;;5049376;28;20470;-69
2022/12/07 02:34:34;;;;;;;15.07;7.53;;;;;;;;;;5049113;28;20025;-67
2022/12/07 02:37:03;;;;;;;15.13;7.60;;;;;;;;;;5048896;28;20102;-69
2022/12/07 02:39:28;;;;;;;;;;;;;;;;;;5048499;28;20021;-68
2022/12/07 02:41:56;;;;;;;17.17;7.53;;;;;;;;;;5049042;28;19909;-65
2022/12/07 02:44:24;;;;;;;15.20;7.28;;;;;;;;;;5049223;28;20266;-67
2022/12/07 02:46:58;;;;;;;15.02;7.53;;;;;;;;;;5049080;28;20029;-68
2022/12/07 02:49:24;;;;;;;16.10;7.03;;;;;;;;;;5049173;28;20025;-68
2022/12/07 02:51:53;;;;;;;14.60;8.13;;;;;;;;;;5049044;28;20112;-69
2022/12/07 02:54:19;;;;;;;16.80;7.03;;;;;;;;;;5049286;28;20041;-68
2022/12/07 02:56:44;;;;;;;18.17;7.55;;;;;;;;;;5048605;28;20033;-69
2022/12/07 02:59:28;;;;;;;16.20;7.55;;;;;;;;;;5048597;28;20017;-68
2022/12/07 03:02:05;;;;;;;15.02;6.85;;;;;;;;;;5046639;28;20017;-67
2022/12/07 03:04:31;;;;;;;16.27;6.93;;;;;;;;;;5040849;28;20017;-66
2022/12/07 03:07:19;;;;;;;13.50;6.18;;;;;;;;;;5048278;28;20087;-67
2022/12/07 03:09:50;;;;;;;13.27;6.32;;;;;;;;;;5037408;28;20490;-65
2022/12/07 03:12:21;;;;;;;14.57;6.03;;;;;;;;;;5047714;28;20036;-65
2022/12/07 03:14:55;;;;;;;12.95;6.35;;;;;;;;;;5049366;28;20032;-66
2022/12/07 03:17:31;;;;;;;15.43;6.47;;;;;;;;;;5047811;28;20029;-68
2022/12/07 03:19:58;;;;;;;12.52;6.15;;;;;;;;;;5049259;28;20021;-66
2022/12/07 03:22:26;;;;;;;17.20;6.65;;;;;;;;;;5048362;28;20028;-67
2022/12/07 03:24:57;;;;;;;17.17;6.53;;;;;;;;;;5049517;28;20021;-66
2022/12/07 03:27:25;;;;;;;14.95;6.38;;;;;;;;;;5048534;28;20254;-66
2022/12/07 03:30:19;;;;;;;16.65;6.57;;;;;;;;;;5048839;28;20376;-68
2022/12/07 03:32:45;;;;;;;11.93;5.28;;;;;;;;;;5047783;28;20029;-67
2022/12/07 03:35:10;;;;;;;18.77;6.63;;;;;;;;;;5051524;28;20082;-67
2022/12/07 03:37:45;;;;;;;12.75;6.20;;;;;;;;;;5052338;28;20387;-67
2022/12/07 03:40:10;;;;;;;15.18;6.05;;;;;;;;;;5042089;28;20013;-67
2022/12/07 03:42:36;;;;;;;12.75;5.90;;;;;;;;;;5051165;28;20540;-67
2022/12/07 03:45:01;;;;;;;14.05;6.68;;;;;;;;;;5052640;28;20036;-68
2022/12/07 03:47:33;;;;;;;15.80;5.88;;;;;;;;;;5052880;28;20025;-68
2022/12/07 03:50:00;;;;;;;15.30;6.43;;;;;;;;;;5056566;28;20024;-68
2022/12/07 03:52:28;;;;;;;13.07;5.72;;;;;;;;;;5056512;28;20390;-68
2022/12/07 03:55:00;;;;;;;16.83;6.77;;;;;;;;;;5056095;28;20036;-67
2022/12/07 03:57:26;;;;;;;12.00;6.80;;;;;;;;;;5053445;28;20025;-66
2022/12/07 03:59:53;;;;;;;16.20;6.18;;;;;;;;;;5052359;28;20104;-67
2022/12/07 04:02:18;;;;;;;14.35;6.00;;;;;;;;;;5051777;28;20056;-67
2022/12/07 04:04:43;;;;;;;13.27;6.18;;;;;;;;;;5038616;28;20045;-65
2022/12/07 04:07:09;;;;;;;19.60;6.60;;;;;;;;;;5050883;28;20052;-67
2022/12/07 04:09:34;;;;;;;13.57;5.65;;;;;;;;;;5044094;28;20041;-68
2022/12/07 04:11:59;;;;;;;12.00;5.72;;;;;;;;;;5052079;28;20078;-67
2022/12/07 04:14:24;;;;;;;14.18;5.95;;;;;;;;;;5051876;28;20056;-66
2022/12/07 04:16:56;;;;;;;12.32;5.70;;;;;;;;;;5051919;28;20072;-67
2022/12/07 04:19:23;;;;;;;12.88;5.88;;;;;;;;;;5052060;28;20151;-67
2022/12/07 04:21:48;;;;;;;12.35;5.95;;;;;;;;;;5052032;28;20025;-68
2022/12/07 04:24:14;;;;;;;11.63;5.65;;;;;;;;;;5051305;28;20020;-65
2022/12/07 04:26:40;;;;;;;11.45;5.35;;;;;;;;;;5051543;28;20500;-69
2022/12/07 04:29:05;;;;;;;12.32;5.63;;;;;;;;;;5052089;28;20017;-66
2022/12/07 04:31:30;;;;;;;12.98;5.50;;;;;;;;;;5051886;28;20023;-68
2022/12/07 04:33:55;;;;;;;14.52;5.88;;;;;;;;;;5051655;28;20020;-65
2022/12/07 04:36:21;;;;;;;15.55;6.03;;;;;;;;;;5051494;28;20036;-68
2022/12/07 04:38:46;;;;;;;11.40;5.78;;;;;;;;;;5051464;28;20013;-68
2022/12/07 04:41:12;;;;;;;14.10;6.10;;;;;;;;;;5050217;28;20410;-68
2022/12/07 04:43:37;;;;;;;12.10;5.78;;;;;;;;;;5050592;28;20049;-67
2022/12/07 04:46:02;;;;;;;14.88;4.82;;;;;;;;;;5050696;28;20017;-65
2022/12/07 04:48:28;;;;;;;10.70;5.65;;;;;;;;;;5049977;28;20021;-67
2022/12/07 04:50:53;;;;;;;14.85;5.40;;;;;;;;;;5051138;28;20089;-68
2022/12/07 04:53:18;;;;;;;12.02;5.22;;;;;;;;;;5050116;28;20390;-67
2022/12/07 04:55:44;;;;;;;13.27;5.82;;;;;;;;;;5051350;28;20025;-65
2022/12/07 04:58:09;;;;;;;15.50;5.53;;;;;;;;;;5050369;28;20077;-67
2022/12/07 05:00:35;;;;;;;12.68;5.53;;;;;;;;;;5051156;28;20396;-66
2022/12/07 05:03:00;;;;;;;11.07;5.25;;;;;;;;;;5040973;28;20091;-67
2022/12/07 05:05:25;;;;;;;13.82;5.45;;;;;;;;;;5055705;22;20161;-64
2022/12/07 05:07:50;;;;;;;16.08;6.05;;;;;;;;;;5045481;28;20159;-69
2022/12/07 05:10:16;;;;;;;12.68;5.63;;;;;;;;;;5038377;28;20087;-66
2022/12/07 05:12:41;;;;;;;11.45;5.35;;;;;;;;;;5048088;28;20024;-64
2022/12/07 05:15:07;;;;;;;13.25;5.70;;;;;;;;;;5047760;28;20029;-67
2022/12/07 05:17:32;;;;;;;14.05;6.65;;;;;;;;;;5047745;28;20040;-66
2022/12/07 05:19:57;;;;;;;11.50;5.60;;;;;;;;;;5050438;28;20244;-67
2022/12/07 05:22:22;;;;;;;11.23;5.80;;;;;;;;;;5047702;28;20021;-65
2022/12/07 05:24:47;;;;;;;11.75;6.53;;;;;;;;;;5051908;28;20013;-68
2022/12/07 05:27:13;;;;;;;15.52;6.13;;;;;;;;;;5059913;28;20035;-66
2022/12/07 05:29:38;;;;;;;13.77;6.47;;;;;;;;;;5053387;28;20032;-67
2022/12/07 05:32:03;;;;;;;16.50;6.15;;;;;;;;;;5047669;28;20395;-66
2022/12/07 05:34:28;;;;;;;15.25;6.78;;;;;;;;;;5042529;28;20116;-68
2022/12/07 05:36:54;;;;;;;13.85;7.28;;;;;;;;;;5045839;28;20017;-68
2022/12/07 05:39:19;;;;;;;13.77;7.07;;;;;;;;;;5048036;28;20432;-68
2022/12/07 05:44:28;;;;;;;15.32;7.18;;;;;;;;;;5048844;28;20071;-68
2022/12/07 05:46:53;;;;;;;14.45;7.00;;;;;;;;;;5048800;28;20029;-66
2022/12/07 05:49:18;;;;;;;13.73;6.97;;;;;;;;;;5047862;28;20176;-67
2022/12/07 05:51:44;;;;;;;16.02;6.78;;;;;;;;;;5048478;28;20029;-67
2022/12/07 05:54:09;;;;;;;15.60;7.20;;;;;;;;;;5048711;28;20021;-67
2022/12/07 05:56:34;;;;;;;16.70;7.55;;;;;;;;;;5048264;28;20017;-68
2022/12/07 06:01:44;;;;;;;15.18;8.07;;;;;;;;;;5048877;28;20020;-64
2022/12/07 06:04:09;;;;;;;15.25;7.03;;;;;;;;;;5030609;28;20025;-68
2022/12/07 06:06:34;;;;;;;16.25;7.80;;;;;;;;;;5044961;28;20060;-65
2022/12/07 06:08:59;;;;;;;20.60;8.52;;;;;;;;;;5045983;28;20182;-68
2022/12/07 06:14:09;;;;;;;16.92;8.75;;;;;;;;;;5049252;28;20027;-67
2022/12/07 06:16:34;;;;;;;16.85;8.95;;;;;;;;;;5048973;28;20108;-66
2022/12/07 06:18:59;;;;;;;18.05;9.13;;;;;;;;;;5039338;28;20105;-67
2022/12/07 06:21:26;;;;;;;19.40;9.35;;;;;;;;;;5048324;28;20108;-66
2022/12/07 06:23:51;;;;;;;19.73;8.93;;;;;;;;;;5046115;28;20028;-67
2022/12/07 06:26:16;;;;;;;18.17;9.32;;;;;;;;;;5050314;28;20039;-65
2022/12/07 06:28:42;;;;;;;18.63;9.30;;;;;;;;;;5048505;28;20118;-68
2022/12/07 06:31:07;;;;;;;19.05;9.60;;;;;;;;;;5047322;28;20021;-65
2022/12/07 06:33:32;;;;;;;17.60;9.00;;;;;;;;;;5046972;28;20605;-68
2022/12/07 06:35:58;;;;;;;18.92;9.85;;;;;;;;;;5048233;28;20052;-68
2022/12/07 06:38:23;;;;;;;19.77;9.93;;;;;;;;;;5047950;28;20443;-65
2022/12/07 06:40:48;;;;;;;21.60;9.63;;;;;;;;;;5048008;28;20021;-68
2022/12/07 06:43:13;;;;;;;20.33;9.82;;;;;;;;;;5045859;28;20017;-68
2022/12/07 06:45:40;;;;;;;20.85;9.88;;;;;;;;;;5040763;28;20063;-66
2022/12/07 06:48:05;;;;;;;21.08;10.10;;;;;;;;;;5037806;28;20030;-66
2022/12/07 06:50:30;;;;;;;19.75;9.90;;;;;;;;;;5048555;28;20052;-67
2022/12/07 06:52:55;;;;;;;18.60;8.88;;;;;;;;;;5047551;28;20036;-65
2022/12/07 06:55:20;;;;;;;25.52;10.57;;;;;;;;;;5048210;28;20025;-67
2022/12/07 06:57:46;;;;;;;23.48;11.38;;;;;;;;;;5045016;28;20051;-66
2022/12/07 07:00:11;;;;;;;25.02;11.57;;;;;;;;;;5037458;28;20020;-65
2022/12/07 07:02:36;;;;;;;24.38;11.88;;;;;;;;;;5046862;28;20025;-66
2022/12/07 07:05:02;;;;;;;21.88;9.52;;;;;;;;;;5039295;28;20083;-65
2022/12/07 07:07:28;;;;;;;20.38;9.45;;;;;;;;;;5043662;28;20613;-66
2022/12/07 07:09:53;;;;;;;22.73;10.55;;;;;;;;;;5048174;28;20043;-65
2022/12/07 07:12:18;;;;;;;21.63;10.50;;;;;;;;;;5044131;28;20458;-66
2022/12/07 07:14:43;;;;;;;21.15;10.05;;;;;;;;;;5050619;28;20037;-65
2022/12/07 07:17:09;;;;;;;25.58;10.10;;;;;;;;;;5044786;28;20029;-67
2022/12/07 07:19:34;;;;;;;18.38;9.63;;;;;;;;;;5049738;28;20101;-66
2022/12/07 07:21:59;;;;;;;24.55;10.63;;;;;;;;;;5046706;28;20075;-65
2022/12/07 07:24:24;;;;;;;19.92;9.57;;;;;;;;;;5051453;28;20816;-67
2022/12/07 07:26:50;;;;;;;17.20;10.05;;;;;;;;;;5052296;28;20021;-67
2022/12/07 07:29:15;;;;;;;20.75;11.02;;;;;;;;;;5051221;28;20070;-66
2022/12/07 07:31:40;;;;;;;19.02;10.07;;;;;;;;;;5051593;28;20108;-66
2022/12/07 07:34:05;;;;;;;21.50;9.52;;;;;;;;;;5050610;28;20048;-65
2022/12/07 07:36:30;;;;;;;18.63;9.27;;;;;;;;;;5050914;28;20112;-66
2022/12/07 07:38:56;;;;;;;20.13;10.00;;;;;;;;;;5048896;28;20096;-68
2022/12/07 07:41:21;;;;;;;16.15;8.68;;;;;;;;;;5040184;28;20017;-67
2022/12/07 07:43:46;;;;;;;17.15;9.30;;;;;;;;;;5052703;28;20156;-67
2022/12/07 07:46:11;;;;;;;23.40;9.55;;;;;;;;;;5050591;28;20169;-69
2022/12/07 07:48:37;;;;;;;16.35;8.10;;;;;;;;;;5050782;28;20036;-66
2022/12/07 07:51:05;;;;;;;18.42;8.98;;;;;;;;;;5050563;28;20040;-66
2022/12/07 07:53:30;;;;;;;18.48;9.50;;;;;;;;;;5039723;28;20029;-67
2022/12/07 07:55:55;;;;;;;18.70;9.00;;;;;;;;;;5051278;28;20027;-66
2022/12/07 07:58:20;;;;;;;17.40;8.02;;;;;;;;;;5051056;28;20040;-67
2022/12/07 08:00:46;;;;;;;17.77;8.38;;;;;;;;;;5051138;28;20360;-68
2022/12/07 08:03:11;;;;;;;16.60;8.70;;;;;;;;;;5040973;28;20014;-66
2022/12/07 08:05:37;;;;;;;17.75;9.35;;;;;;;;;;5050843;28;20033;-68
2022/12/07 08:08:02;;;;;;;17.88;8.30;;;;;;;;;;5049908;28;20021;-65
2022/12/07 08:10:27;;;;;;;19.27;8.40;;;;;;;;;;5050652;28;20624;-67
2022/12/07 08:13:11;;;;;;;20.13;8.13;;;;;;;;;;5049645;28;20154;-67
2022/12/07 08:15:37;;;;;;;19.55;8.40;;;;;;;;;;5051064;28;20025;-66
2022/12/07 08:18:02;;;;;;;18.23;7.68;;;;;;;;;;5049847;28;20454;-66
2022/12/07 08:20:29;;;;;;;22.67;7.68;;;;;;;;;;5048616;28;20037;-68
2022/12/07 08:22:54;;;;;;;16.27;7.88;;;;;;;;;;5049704;28;20415;-67
2022/12/07 08:25:21;;;;;;;17.27;8.02;;;;;;;;;;5031708;28;20186;-69
2022/12/07 08:27:47;;;;;;;18.23;8.80;;;;;;;;;;5046562;28;20093;-65
2022/12/07 08:30:12;;;;;;;15.43;8.05;;;;;;;;;;5040206;28;20111;-67
2022/12/07 08:32:38;;;;;;;17.05;7.47;;;;;;;;;;5045456;28;20029;-66
2022/12/07 08:35:04;;;;;;;15.40;7.63;;;;;;;;;;5048846;28;20130;-66
2022/12/07 08:37:29;;;;;;;18.92;7.57;;;;;;;;;;5049839;28;20025;-68
2022/12/07 08:39:54;;;;;;;16.42;7.95;;;;;;;;;;5051012;28;20681;-67
2022/12/07 08:42:21;;;;;;;18.30;8.05;;;;;;;;;;5050252;28;20039;-67
2022/12/07 08:44:47;;;;;;;18.98;7.13;;;;;;;;;;5049511;28;20021;-66
2022/12/07 08:47:12;;;;;;;14.52;7.10;;;;;;;;;;5039741;28;20071;-69
2022/12/07 08:49:40;;;;;;;17.55;6.72;;;;;;;;;;5050032;28;20490;-69
2022/12/07 08:52:05;;;;;;;20.35;6.57;;;;;;;;;;5050633;28;20104;-65
2022/12/07 08:54:33;;;;;;;16.20;7.65;;;;;;;;;;5049542;28;20115;-67
2022/12/07 08:56:58;;;;;;;20.20;7.93;;;;;;;;;;5049528;28;20076;-67
2022/12/07 08:59:23;;;;;;;26.80;7.97;;;;;;;;;;5049339;28;20485;-66
2022/12/07 09:01:48;;;;;;;12.80;6.55;;;;;;;;;;5045904;28;20486;-67
2022/12/07 09:04:15;;;;;;;15.55;7.55;;;;;;;;;;5037944;28;21001;-66
2022/12/07 09:06:41;;;;;;;18.63;7.75;;;;;;;;;;5042478;28;20571;-68
2022/12/07 09:09:07;;;;;;;13.57;6.88;;;;;;;;;;5041492;28;20037;-66
2022/12/07 09:11:32;;;;;;;20.85;7.45;;;;;;;;;;5034638;28;20045;-66
2022/12/07 09:13:57;;;;;;;17.77;7.53;;;;;;;;;;5045180;28;20135;-70
2022/12/07 09:16:23;;;;;;;17.08;6.78;;;;;;;;;;5036984;28;20044;-66
2022/12/07 09:18:48;;;;;;;18.05;6.68;;;;;;;;;;5048103;28;20090;-67
2022/12/07 09:21:13;;;;;;;19.55;7.60;;;;;;;;;;5043653;28;20031;-67
2022/12/07 09:23:38;;;;;;;13.38;7.07;;;;;;;;;;5043551;28;20379;-66
2022/12/07 09:26:04;;;;;;;17.60;6.93;;;;;;;;;;5042339;28;20056;-65
2022/12/07 09:28:33;;;;;;;16.27;7.35;;;;;;;;;;5046800;28;20178;-68
2022/12/07 09:30:58;;;;;;;13.88;7.03;;;;;;;;;;5044971;28;20569;-67
2022/12/07 09:33:23;;;;;;;14.98;7.07;;;;;;;;;;5040785;28;20523;-66
2022/12/07 09:35:49;;;;;;;14.82;6.25;;;;;;;;;;5044127;28;20430;-68
2022/12/07 09:38:15;;;;;;;18.20;6.35;;;;;;;;;;5044840;28;20074;-67
2022/12/07 09:40:43;;;;;;;16.05;6.80;;;;;;;;;;5037080;28;20014;-66
2022/12/07 09:43:28;;;;;;;18.33;7.88;;;;;;;;;;5046916;28;20060;-68
2022/12/07 09:45:55;;;;;;;15.13;7.13;;;;;;;;;;5037616;28;20026;-65
2022/12/07 09:48:30;;;;;;;12.73;7.18;;;;;;;;;;5039085;28;20037;-66
2022/12/07 09:50:57;;;;;;;17.10;8.25;;;;;;;;;;5035996;28;20166;-66
2022/12/07 09:53:41;;;;;;;14.63;6.55;;;;;;;;;;5040063;28;20652;-68
2022/12/07 09:56:06;;;;;;;16.95;8.27;;;;;;;;;;5045618;28;20017;-67
2022/12/07 09:58:33;;;;;;;12.93;6.70;;;;;;;;;;5046194;28;20013;-67
2022/12/07 10:01:09;;;;;;;13.65;7.55;;;;;;;;;;5033869;28;20485;-66
2022/12/07 10:03:36;;;;;;;12.45;6.78;;;;;;;;;;5033298;28;20469;-69
2022/12/07 10:06:01;;;;;;;15.63;7.85;;;;;;;;;;5033463;28;20037;-66
2022/12/07 10:08:27;;;;;;;12.77;6.80;;;;;;;;;;5034221;28;20023;-68
2022/12/07 10:10:53;;;;;;;16.90;6.47;;;;;;;;;;5034562;28;20045;-69
2022/12/07 10:13:35;;;;;;;14.32;6.32;;;;;;;;;;5032463;28;20029;-67
2022/12/07 10:16:01;;;;;;;12.32;6.35;;;;;;;;;;5031182;28;20098;-66
2022/12/07 10:18:28;;;;;;;15.32;7.35;;;;;;;;;;5029999;28;20049;-68
2022/12/07 10:21:04;;;;;;;13.90;6.93;;;;;;;;;;5029649;28;20100;-68
2022/12/07 10:23:29;;;;;;;19.70;7.13;;;;;;;;;;5032233;28;20029;-69
2022/12/07 10:25:54;;;;;;;26.55;7.80;;;;;;;;;;5032240;28;20013;-66
2022/12/07 10:28:20;;;;;;;10.82;5.78;;;;;;;;;;5031805;28;20033;-67
2022/12/07 10:30:52;;;;;;;14.00;6.60;;;;;;;;;;5031686;28;20033;-68
2022/12/07 10:33:35;;;;;;;12.20;6.72;;;;;;;;;;5033453;28;20479;-69
2022/12/07 10:36:16;;;;;;;14.27;6.43;;;;;;;;;;5032009;28;20029;-67
2022/12/07 10:38:44;;;;;;;15.07;5.70;;;;;;;;;;5030052;28;20056;-68
2022/12/07 10:41:09;;;;;;;10.80;5.47;;;;;;;;;;5033213;28;21247;-69
2022/12/07 10:43:34;;;;;;;13.90;5.65;;;;;;;;;;5030998;28;20021;-67
2022/12/07 10:46:08;;;;;;;13.40;5.22;;;;;;;;;;5033762;28;20116;-67
2022/12/07 10:48:38;;;;;;;12.65;5.28;;;;;;;;;;5031223;28;20017;-67
2022/12/07 10:51:07;;;;;;;9.52;4.43;;;;;;;;;;5031011;28;20383;-69
2022/12/07 10:53:35;;;;;;;23.30;5.93;;;;;;;;;;5031229;28;20014;-67
2022/12/07 10:56:15;;;;;;;9.40;4.85;;;;;;;;;;5029805;28;20129;-68
2022/12/07 10:58:59;;;;;;;11.00;4.70;;;;;;;;;;5028130;28;20556;-69
2022/12/07 11:01:24;;;;;;;15.15;4.85;;;;;;;;;;5029324;28;20014;-66
2022/12/07 11:04:05;;;;;;;11.85;4.90;;;;;;;;;;5032909;28;20044;-69
2022/12/07 11:06:37;;;;;;;11.10;4.75;;;;;;;;;;5046897;22;20041;-68
2022/12/07 11:09:21;;;;;;;10.65;5.20;;;;;;;;;;5029889;28;20462;-68
2022/12/07 11:11:52;;;;;;;10.70;4.70;;;;;;;;;;5034661;28;20025;-69
2022/12/07 11:14:25;;;;;;;10.63;5.25;;;;;;;;;;5032394;28;21005;-68
2022/12/07 11:16:59;;;;;;;13.68;6.38;;;;;;;;;;5030242;28;20065;-63
2022/12/07 11:19:45;;;;;;;11.15;5.65;;;;;;;;;;5031747;28;20037;-69
2022/12/07 11:22:17;;;;;;;14.88;6.07;;;;;;;;;;5029057;28;20378;-68
2022/12/07 11:24:49;;;;;;;16.25;6.00;;;;;;;;;;5034248;28;20033;-69
2022/12/07 11:27:14;;;;;;;18.48;5.70;;;;;;;;;;5036061;28;20029;-68
2022/12/07 11:29:45;;;;;;;13.73;5.43;;;;;;;;;;5032131;28;20964;-69
2022/12/07 11:32:29;;;;;;;19.92;5.65;;;;;;;;;;5030387;28;20057;-69
2022/12/07 11:34:57;;;;;;;10.25;4.68;;;;;;;;;;5031662;28;20021;-69
2022/12/07 11:37:29;;;;;;;9.90;3.92;;;;;;;;;;5033477;28;20176;-68
2022/12/07 11:39:58;;;;;;;8.20;4.20;;;;;;;;;;5028358;28;20066;-69
2022/12/07 11:42:35;;;;;;;10.18;3.88;;;;;;;;;;5033770;28;20029;-69
2022/12/07 11:45:09;;;;;;;12.45;4.10;;;;;;;;;;5032182;28;20095;-64
2022/12/07 11:47:38;;;;;;;12.25;4.90;;;;;;;;;;5031438;28;20450;-65
2022/12/07 11:50:09;;;;;;;15.27;4.55;;;;;;;;;;5032502;28;20022;-68
2022/12/07 11:52:34;;;;;;;13.60;4.85;;;;;;;;;;5033330;28;20029;-67
2022/12/07 11:55:01;;;;;;;11.60;3.97;;;;;;;;;;5033786;28;20401;-65
2022/12/07 11:57:38;;;;;;;8.73;4.00;;;;;;;;;;5034233;28;20095;-65
2022/12/07 12:00:07;;;;;;;11.82;4.07;;;;;;;;;;5031055;28;20486;-66
2022/12/07 12:02:36;;;;;;;10.15;4.20;;;;;;;;;;5031846;28;20040;-65
2022/12/07 12:05:17;;;;;;;11.43;3.60;;;;;;;;;;5033803;28;20503;-69
2022/12/07 12:07:43;;;;;;;7.82;3.35;;;;;;;;;;5038168;28;20345;-65
2022/12/07 12:10:17;;;;;;;8.95;3.50;;;;;;;;;;5031615;28;20068;-67
2022/12/07 12:13:03;;;;;;;8.93;3.00;;;;;;;;;;5038356;28;20043;-65
2022/12/07 12:15:40;;;;;;;6.80;2.80;;;;;;;;;;4998135;28;20555;-64
2022/12/07 12:18:12;;;;;;;7.70;2.90;;;;;;;;;;5035283;28;20037;-64
2022/12/07 12:20:46;;;;;;;9.57;3.28;;;;;;;;;;5034160;28;20539;-67
2022/12/07 12:23:22;;;;;;;7.35;2.92;;;;;;;;;;5031618;28;20029;-68
2022/12/07 12:25:50;;;;;;;7.20;2.90;;;;;;;;;;5060451;28;20423;-65
2022/12/07 12:28:21;;;;;;;6.68;2.10;;;;;;;;;;5036610;28;20116;-66
2022/12/07 12:31:03;;;;;;;4.43;2.10;;;;;;;;;;5032710;28;20066;-66
2022/12/07 12:33:30;;;;;;;5.35;2.83;;;;;;;;;;5039330;28;20029;-66
2022/12/07 12:36:15;;;;;;;3.85;2.05;;;;;;;;;;5036588;28;20036;-69
2022/12/07 12:38:49;;;;;;;7.60;3.13;;;;;;;;;;5029635;28;20463;-69
2022/12/07 12:41:33;;;;;;;6.13;2.45;;;;;;;;;;5034372;28;20068;-66
2022/12/07 12:43:58;;;;;;;7.25;2.50;;;;;;;;;;5036974;28;20127;-68
2022/12/07 12:46:31;;;;;;;8.10;2.50;;;;;;;;;;5039185;28;20080;-67
2022/12/07 12:49:15;;;;;;;5.63;1.88;;;;;;;;;;5049522;28;20021;-66
2022/12/07 12:51:41;;;;;;;4.95;1.77;;;;;;;;;;5041699;28;20020;-66
2022/12/07 12:54:26;;;;;;;7.30;2.20;;;;;;;;;;5048477;28;20427;-70
2022/12/07 12:56:58;;;;;;;3.45;1.52;;;;;;;;;;5036911;28;20042;-67
2022/12/07 12:59:33;;;;;;;5.70;1.73;;;;;;;;;;5050960;28;20078;-68
2022/12/07 13:02:01;;;;;;;6.47;1.85;;;;;;;;;;5047008;28;20016;-68
2022/12/07 13:04:34;;;;;;;6.60;2.23;;;;;;;;;;5045784;28;20459;-68
2022/12/07 13:07:00;;;;;;;7.95;1.80;;;;;;;;;;5045981;28;20439;-68
2022/12/07 13:09:29;;;;;;;5.35;2.45;;;;;;;;;;5049645;28;20095;-68
2022/12/07 13:11:59;;;;;;;15.93;1.90;;;;;;;;;;5051196;28;20020;-66
2022/12/07 13:14:39;;;;;;;4.95;1.90;;;;;;;;;;5049531;28;20040;-66
2022/12/07 13:17:04;;;;;;;3.35;1.77;;;;;;;;;;5050550;28;20025;-67
2022/12/07 13:19:42;;;;;;;5.03;1.85;;;;;;;;;;5049590;28;20017;-68
2022/12/07 13:22:28;;;;;;;6.82;1.80;;;;;;;;;;5038279;28;20041;-67
2022/12/07 13:25:16;;;;;;;6.95;1.60;;;;;;;;;;5035902;28;20036;-67
2022/12/07 13:27:47;;;;;;;4.00;1.40;;;;;;;;;;5050053;28;20103;-69
2022/12/07 13:30:17;;;;;;;3.50;1.30;;;;;;;;;;5051831;28;20021;-66
2022/12/07 13:32:42;;;;;;;6.22;1.35;;;;;;;;;;5048859;28;20033;-66
2022/12/07 13:35:26;;;;;;;5.75;1.52;;;;;;;;;;5050943;28;20028;-65
2022/12/07 13:37:51;;;;;;;3.72;1.38;;;;;;;;;;5049583;28;20062;-68
2022/12/07 13:40:19;;;;;;;2.10;1.20;;;;;;;;;;5050244;28;20096;-66
2022/12/07 13:42:44;;;;;;;4.68;1.60;;;;;;;;;;5049242;28;20052;-67
2022/12/07 13:45:47;;;;;;;4.55;1.67;;;;;;;;;;5049742;28;20036;-67
2022/12/07 13:48:12;;;;;;;5.47;1.80;;;;;;;;;;5040518;28;20028;-66
2022/12/07 13:50:37;;;;;;;;;;;;;;;;;;5038853;28;20130;-68
2022/12/07 13:53:11;;;;;;;5.47;1.42;;;;;;;;;;5039357;28;19948;-68
2022/12/07 13:55:43;;;;;;;2.50;1.25;;;;;;;;;;5042053;28;20033;-69
2022/12/07 13:58:09;;;;;;;9.75;1.65;;;;;;;;;;5040331;28;20036;-68
2022/12/07 14:00:34;;;;;;;5.25;1.50;;;;;;;;;;5043100;28;20379;-67
2022/12/07 14:03:11;;;;;;;2.80;1.27;;;;;;;;;;5041296;28;20017;-68
2022/12/07 14:05:38;;;;;;;3.97;1.90;;;;;;;;;;5042240;28;20013;-66
2022/12/07 14:08:09;;;;;;;7.93;1.55;;;;;;;;;;5038114;28;20102;-67
2022/12/07 14:10:54;;;;;;;3.58;1.60;;;;;;;;;;5039922;28;20034;-68
2022/12/07 14:13:27;;;;;;;6.60;1.45;;;;;;;;;;5041313;28;20104;-70
2022/12/07 14:15:52;;;;;;;9.00;1.60;;;;;;;;;;5045404;28;20052;-67
2022/12/07 14:18:25;;;;;;;2.00;1.27;;;;;;;;;;5043261;28;20111;-68
2022/12/07 14:20:50;;;;;;;6.03;1.55;;;;;;;;;;5038360;28;20013;-68
2022/12/07 14:23:23;;;;;;;6.72;1.80;;;;;;;;;;5036309;28;20557;-68
2022/12/07 14:25:50;;;;;;;2.92;1.17;;;;;;;;;;5040565;28;20071;-69
2022/12/07 14:28:29;;;;;;;5.80;1.85;;;;;;;;;;5040628;28;20101;-69
2022/12/07 14:30:54;;;;;;;6.60;1.65;;;;;;;;;;5039537;28;20009;-69
2022/12/07 14:33:20;;;;;;;4.40;1.58;;;;;;;;;;5037221;28;20092;-68
2022/12/07 14:35:45;;;;;;;6.85;1.33;;;;;;;;;;5039836;28;20039;-68
2022/12/07 14:38:10;;;;;;;6.13;1.60;;;;;;;;;;5039310;28;20016;-69
2022/12/07 14:40:35;;;;;;;8.73;1.67;;;;;;;;;;5048397;28;20017;-69
2022/12/07 14:43:02;;;;;;;3.17;1.40;;;;;;;;;;5049180;28;20021;-68
2022/12/07 14:45:28;;;;;;;8.50;1.77;;;;;;;;;;5049771;28;20035;-69
2022/12/07 14:47:53;;;;;;;9.30;1.20;;;;;;;;;;5049350;28;20100;-66
2022/12/07 14:50:19;;;;;;;3.10;1.50;;;;;;;;;;5049658;28;20025;-69